createdAt,value
2023-04-17T00:01:04.223Z,5.30
2023-04-17T00:03:33.179Z,5.70
2023-04-17T00:06:06.446Z,5.90
2023-04-17T00:08:35.392Z,5.90
2023-04-17T00:11:08.376Z,6.57
2023-04-17T00:13:40.220Z,5.53
2023-04-17T00:16:19.525Z,6.43
2023-04-17T00:18:50.617Z,6.53
2023-04-17T00:21:20.993Z,5.93
2023-04-17T00:23:50.350Z,5.93
2023-04-17T00:26:21.185Z,5.67
2023-04-17T00:28:58.619Z,6.03
2023-04-17T00:31:43.791Z,5.90
2023-04-17T00:34:11.915Z,6.17
2023-04-17T00:36:41.026Z,6.30
2023-04-17T00:39:22.094Z,5.63
2023-04-17T00:41:53.108Z,5.33
2023-04-17T00:44:24.182Z,6.07
2023-04-17T00:47:08.872Z,6.30
2023-04-17T00:49:40.501Z,6.83
2023-04-17T00:52:10.006Z,5.93
2023-04-17T00:54:41.295Z,6.40
2023-04-17T00:57:18.331Z,5.97
2023-04-17T00:59:49.058Z,7.00
2023-04-17T01:02:20.951Z,6.30
2023-04-17T01:04:49.089Z,6.50
2023-04-17T01:07:26.280Z,7.03
2023-04-17T01:09:55.861Z,6.70
2023-04-17T01:12:27.193Z,7.03
2023-04-17T01:15:04.857Z,5.40
2023-04-17T01:17:46.672Z,6.37
2023-04-17T01:20:17.589Z,7.23
2023-04-17T01:22:58.592Z,7.37
2023-04-17T01:25:34.372Z,6.43
2023-04-17T01:28:06.404Z,7.10
2023-04-17T01:30:35.433Z,6.50
2023-04-17T01:33:09.513Z,7.07
2023-04-17T01:35:43.378Z,6.63
2023-04-17T01:38:12.536Z,6.50
2023-04-17T01:40:44.950Z,7.00
2023-04-17T01:43:19.000Z,6.70
2023-04-17T01:45:55.447Z,6.93
2023-04-17T01:48:36.985Z,6.73
2023-04-17T01:51:09.851Z,6.53
2023-04-17T01:53:46.079Z,6.50
2023-04-17T01:56:26.041Z,6.53
2023-04-17T01:58:57.727Z,6.47
2023-04-17T02:01:29.384Z,6.30
2023-04-17T02:04:00.531Z,5.53
2023-04-17T02:06:32.255Z,6.03
2023-04-17T02:09:06.315Z,6.13
2023-04-17T02:11:49.565Z,6.40
2023-04-17T02:14:30.507Z,6.20
2023-04-17T02:17:00.075Z,6.30
2023-04-17T02:19:29.010Z,6.17
2023-04-17T02:22:00.435Z,7.23
2023-04-17T02:24:32.064Z,6.87
2023-04-17T02:27:10.917Z,5.40
2023-04-17T02:29:41.618Z,6.00
2023-04-17T02:32:18.324Z,6.57
2023-04-17T02:34:52.083Z,6.13
2023-04-17T02:37:23.634Z,6.30
2023-04-17T02:39:54.799Z,6.83
2023-04-17T02:42:37.549Z,6.07
2023-04-17T02:45:07.358Z,7.00
2023-04-17T02:47:36.822Z,6.40
2023-04-17T02:50:09.246Z,7.10
2023-04-17T02:52:46.973Z,6.80
2023-04-17T02:55:17.433Z,6.73
2023-04-17T02:57:53.955Z,6.60
2023-04-17T03:00:24.768Z,6.97
2023-04-17T03:03:01.739Z,6.60
2023-04-17T03:05:39.701Z,7.00
2023-04-17T03:08:17.120Z,7.00
2023-04-17T03:10:50.765Z,7.10
2023-04-17T03:13:27.350Z,7.30
2023-04-17T03:15:56.354Z,6.40
2023-04-17T03:18:28.142Z,6.10
2023-04-17T03:21:00.831Z,7.13
2023-04-17T03:23:30.921Z,6.10
2023-04-17T03:26:02.110Z,7.80
2023-04-17T03:28:46.525Z,7.50
2023-04-17T03:31:17.946Z,5.60
2023-04-17T03:33:47.311Z,6.23
2023-04-17T03:36:18.270Z,6.40
2023-04-17T03:38:51.261Z,6.30
2023-04-17T03:41:22.159Z,6.53
2023-04-17T03:43:53.048Z,6.80
2023-04-17T03:46:31.541Z,6.77
2023-04-17T03:49:06.410Z,6.67
2023-04-17T03:51:37.127Z,6.43
2023-04-17T03:54:18.635Z,6.80
2023-04-17T03:56:55.699Z,6.63
2023-04-17T03:59:38.054Z,7.90
2023-04-17T04:02:07.734Z,6.87
2023-04-17T04:04:39.235Z,6.90
2023-04-17T04:07:12.784Z,6.13
2023-04-17T04:09:43.515Z,7.00
2023-04-17T04:12:15.033Z,6.30
2023-04-17T04:14:50.986Z,6.87
2023-04-17T04:17:20.376Z,6.87
2023-04-17T04:19:51.506Z,6.80
2023-04-17T04:22:28.017Z,7.53
2023-04-17T04:24:58.155Z,7.10
2023-04-17T04:27:42.564Z,7.27
2023-04-17T04:30:28.932Z,7.13
2023-04-17T04:33:27.783Z,7.53
2023-04-17T04:36:03.660Z,7.97
2023-04-17T04:38:38.214Z,8.00
2023-04-17T04:41:32.719Z,7.43
2023-04-17T04:44:05.065Z,8.93
2023-04-17T04:46:42.453Z,7.30
2023-04-17T04:49:13.057Z,7.70
2023-04-17T04:51:42.527Z,7.57
2023-04-17T04:54:11.893Z,7.73
2023-04-17T04:56:51.344Z,7.87
2023-04-17T04:59:21.740Z,7.30
2023-04-17T05:02:09.285Z,7.20
2023-04-17T05:04:46.223Z,7.30
2023-04-17T05:07:15.302Z,7.20
2023-04-17T05:09:52.746Z,7.27
2023-04-17T05:12:24.702Z,7.63
2023-04-17T05:14:55.673Z,7.57
2023-04-17T05:17:34.561Z,7.80
2023-04-17T05:20:07.144Z,8.43
2023-04-17T05:22:41.378Z,7.20
2023-04-17T05:25:27.381Z,7.33
2023-04-17T05:28:01.344Z,8.53
2023-04-17T05:30:33.810Z,8.30
2023-04-17T05:33:23.668Z,8.13
2023-04-17T05:35:57.198Z,8.20
2023-04-17T05:38:28.406Z,7.80
2023-04-17T05:40:57.842Z,8.03
2023-04-17T05:43:28.390Z,7.97
2023-04-17T05:45:56.890Z,8.03
2023-04-17T05:48:26.738Z,7.40
2023-04-17T05:50:56.130Z,7.80
2023-04-17T05:53:32.709Z,9.43
2023-04-17T05:56:07.030Z,9.10
2023-04-17T05:58:40.576Z,8.50
2023-04-17T06:01:20.760Z,8.73
2023-04-17T06:04:06.441Z,8.97
2023-04-17T06:06:40.812Z,8.50
2023-04-17T06:09:11.976Z,7.77
2023-04-17T06:11:42.597Z,8.80
2023-04-17T06:14:12.168Z,9.30
2023-04-17T06:16:49.180Z,8.73
2023-04-17T06:19:25.998Z,8.83
2023-04-17T06:21:54.055Z,7.23
2023-04-17T06:24:34.506Z,8.50
2023-04-17T06:27:05.448Z,8.43
2023-04-17T06:29:33.556Z,8.93
2023-04-17T06:32:04.933Z,8.87
2023-04-17T06:34:39.584Z,8.90
2023-04-17T06:37:12.491Z,7.80
2023-04-17T06:39:44.865Z,7.23
2023-04-17T06:42:16.498Z,7.20
2023-04-17T06:44:46.593Z,8.20
2023-04-17T06:47:29.281Z,8.20
2023-04-17T06:50:01.253Z,7.77
2023-04-17T06:52:29.628Z,7.97
2023-04-17T06:55:00.560Z,9.13
2023-04-17T06:57:33.784Z,8.20
2023-04-17T07:00:05.378Z,8.43
2023-04-17T07:02:36.889Z,9.27
2023-04-17T07:05:21.764Z,8.40
2023-04-17T07:07:52.496Z,8.50
2023-04-17T07:10:20.644Z,8.67
2023-04-17T07:12:51.776Z,8.43
2023-04-17T07:15:23.266Z,8.70
2023-04-17T07:17:58.454Z,9.13
2023-04-17T07:20:39.352Z,8.97
2023-04-17T07:23:11.354Z,9.50
2023-04-17T07:25:41.962Z,9.33
2023-04-17T07:28:12.745Z,8.57
2023-04-17T07:30:42.140Z,8.07
2023-04-17T07:33:16.369Z,8.73
2023-04-17T07:35:48.343Z,8.17
2023-04-17T07:38:23.962Z,9.40
2023-04-17T07:40:52.447Z,8.40
2023-04-17T07:43:21.953Z,8.67
2023-04-17T07:45:52.483Z,8.70
2023-04-17T07:48:24.151Z,8.20
2023-04-17T07:50:56.250Z,9.10
2023-04-17T07:53:28.187Z,9.03
2023-04-17T07:56:12.751Z,9.23
2023-04-17T07:58:42.112Z,8.67
2023-04-17T08:01:10.953Z,7.20
2023-04-17T08:03:49.139Z,7.27
2023-04-17T08:06:29.686Z,7.70
2023-04-17T08:09:00.003Z,7.43
2023-04-17T08:11:28.710Z,8.93
2023-04-17T08:14:00.430Z,7.90
2023-04-17T08:16:29.525Z,8.27
2023-04-17T08:19:01.292Z,8.37
2023-04-17T08:21:31.157Z,7.60
2023-04-17T08:24:04.848Z,9.07
2023-04-17T08:26:37.835Z,8.20
2023-04-17T08:29:12.018Z,8.83
2023-04-17T08:32:00.185Z,8.90
2023-04-17T08:34:44.839Z,8.97
2023-04-17T08:37:15.907Z,8.43
2023-04-17T08:39:45.892Z,9.60
2023-04-17T08:42:18.949Z,8.83
2023-04-17T08:44:50.707Z,7.60
2023-04-17T08:47:22.582Z,9.23
2023-04-17T08:49:58.468Z,9.07
2023-04-17T08:52:38.303Z,9.30
2023-04-17T08:55:14.793Z,8.97
2023-04-17T08:58:04.970Z,8.87
2023-04-17T09:00:34.049Z,9.10
2023-04-17T09:03:05.123Z,9.30
2023-04-17T09:05:39.438Z,9.10
2023-04-17T09:08:18.378Z,9.23
2023-04-17T09:10:49.325Z,9.63
2023-04-17T09:13:22.695Z,8.30
2023-04-17T09:16:07.135Z,8.67
2023-04-17T09:18:39.150Z,9.63
2023-04-17T09:21:13.174Z,9.20
2023-04-17T09:23:54.466Z,8.30
2023-04-17T09:26:33.535Z,8.63
2023-04-17T09:29:09.349Z,8.80
2023-04-17T09:31:40.170Z,8.93
2023-04-17T09:34:15.666Z,9.03
2023-04-17T09:36:51.605Z,9.37
2023-04-17T09:39:29.575Z,9.63
2023-04-17T09:42:09.235Z,9.73
2023-04-17T09:44:40.400Z,9.23
2023-04-17T09:47:14.255Z,12.20
2023-04-17T09:49:51.759Z,10.40
2023-04-17T09:52:25.995Z,9.40
2023-04-17T09:55:09.404Z,9.93
2023-04-17T09:57:44.067Z,10.80
2023-04-17T10:00:21.914Z,10.37
2023-04-17T10:02:52.513Z,10.30
2023-04-17T10:05:23.602Z,10.70
2023-04-17T10:07:52.611Z,10.30
2023-04-17T10:10:39.789Z,8.80
2023-04-17T10:13:13.948Z,10.10
2023-04-17T10:15:46.702Z,9.40
2023-04-17T10:18:27.965Z,9.03
2023-04-17T10:20:57.666Z,9.27
2023-04-17T10:23:31.694Z,8.77
2023-04-17T10:26:40.191Z,10.50
2023-04-17T10:29:25.540Z,8.63
2023-04-17T10:32:20.101Z,10.10
2023-04-17T10:34:51.081Z,8.53
2023-04-17T10:37:23.017Z,9.33
2023-04-17T10:39:58.013Z,9.43
2023-04-17T10:42:35.645Z,9.40
2023-04-17T10:45:20.091Z,9.20
2023-04-17T10:48:02.298Z,9.57
2023-04-17T10:50:30.909Z,8.60
2023-04-17T10:53:07.112Z,9.00
2023-04-17T10:55:48.879Z,9.87
2023-04-17T10:58:18.923Z,9.40
2023-04-17T11:01:05.765Z,9.30
2023-04-17T11:03:37.360Z,9.03
2023-04-17T11:06:12.960Z,8.93
2023-04-17T11:08:53.619Z,9.83
2023-04-17T11:11:35.160Z,9.57
2023-04-17T11:14:23.261Z,9.40
2023-04-17T11:16:57.762Z,8.70
2023-04-17T11:19:29.484Z,9.13
2023-04-17T11:21:58.907Z,9.67
2023-04-17T11:24:30.409Z,8.00
2023-04-17T11:27:12.121Z,9.20
2023-04-17T11:29:40.940Z,8.43
2023-04-17T11:32:22.631Z,9.07
2023-04-17T11:34:57.197Z,9.47
2023-04-17T11:37:26.527Z,9.27
2023-04-17T11:39:57.356Z,7.90
2023-04-17T11:42:30.618Z,8.23
2023-04-17T11:45:07.884Z,7.60
2023-04-17T11:47:46.743Z,8.23
2023-04-17T11:50:26.240Z,8.77
2023-04-17T11:53:00.993Z,9.20
2023-04-17T11:55:38.571Z,7.63
2023-04-17T11:58:09.648Z,8.70
2023-04-17T12:00:38.340Z,9.10
2023-04-17T12:03:35.345Z,8.90
2023-04-17T12:06:06.600Z,8.77
2023-04-17T12:08:52.142Z,8.67
2023-04-17T12:11:39.244Z,8.53
2023-04-17T12:14:12.406Z,7.73
2023-04-17T12:16:46.079Z,8.00
2023-04-17T12:19:18.692Z,7.67
2023-04-17T12:21:53.131Z,6.73
2023-04-17T12:24:24.280Z,8.70
2023-04-17T12:26:58.279Z,9.20
2023-04-17T12:29:43.797Z,7.00
2023-04-17T12:32:16.646Z,6.80
2023-04-17T12:34:53.174Z,8.10
2023-04-17T12:37:22.511Z,8.80
2023-04-17T12:40:00.789Z,7.30
2023-04-17T12:42:31.557Z,7.17
2023-04-17T12:45:06.584Z,6.70
2023-04-17T12:47:42.625Z,7.60
2023-04-17T12:50:23.701Z,6.20
2023-04-17T12:52:59.384Z,5.23
2023-04-17T12:55:28.430Z,6.30
2023-04-17T12:57:56.875Z,6.40
2023-04-17T13:00:26.461Z,5.40
2023-04-17T13:02:54.956Z,5.97
2023-04-17T13:05:34.051Z,5.73
2023-04-17T13:08:03.858Z,5.40
2023-04-17T13:10:36.036Z,5.80
2023-04-17T13:13:07.133Z,6.10
2023-04-17T13:15:40.906Z,6.73
2023-04-17T13:18:14.893Z,7.20
2023-04-17T13:20:59.768Z,7.00
2023-04-17T13:23:38.065Z,6.90
2023-04-17T13:26:09.169Z,7.30
2023-04-17T13:28:39.914Z,8.80
2023-04-17T13:31:16.313Z,8.00
2023-04-17T13:33:45.537Z,8.00
2023-04-17T13:36:19.017Z,8.70
2023-04-17T13:38:50.905Z,8.30
2023-04-17T13:41:36.229Z,6.93
2023-04-17T13:44:07.133Z,7.90
2023-04-17T13:46:37.180Z,7.83
2023-04-17T13:49:08.889Z,7.33
2023-04-17T13:51:53.662Z,7.20
2023-04-17T13:54:25.299Z,6.60
2023-04-17T13:56:54.734Z,8.00
2023-04-17T13:59:24.063Z,7.40
2023-04-17T14:02:05.129Z,8.67
2023-04-17T14:04:36.965Z,8.23
2023-04-17T14:07:07.650Z,9.10
2023-04-17T14:09:38.644Z,9.87
2023-04-17T14:12:09.647Z,10.03
2023-04-17T14:14:39.535Z,10.00
2023-04-17T14:17:07.873Z,9.07
2023-04-17T14:19:38.591Z,8.87
2023-04-17T14:22:13.021Z,7.83
2023-04-17T14:24:42.843Z,9.47
2023-04-17T14:27:13.323Z,8.60
2023-04-17T14:29:45.142Z,9.27
2023-04-17T14:32:21.376Z,9.23
2023-04-17T14:34:53.505Z,9.53
2023-04-17T14:37:28.521Z,9.63
2023-04-17T14:40:01.463Z,8.93
2023-04-17T14:42:31.558Z,8.97
2023-04-17T14:45:06.969Z,9.27
2023-04-17T14:47:44.699Z,8.53
2023-04-17T14:50:18.049Z,8.70
2023-04-17T14:52:51.893Z,8.00
2023-04-17T14:55:23.601Z,8.17
2023-04-17T14:57:52.001Z,7.90
2023-04-17T15:00:21.490Z,8.57
2023-04-17T15:02:53.815Z,8.70
2023-04-17T15:05:34.120Z,9.10
2023-04-17T15:08:17.363Z,9.40
2023-04-17T15:10:51.526Z,10.43
2023-04-17T15:13:22.194Z,9.13
2023-04-17T15:15:50.526Z,8.33
2023-04-17T15:18:20.647Z,8.20
2023-04-17T15:20:58.703Z,8.60
2023-04-17T15:23:30.676Z,8.43
2023-04-17T15:26:01.914Z,7.67
2023-04-17T15:28:33.186Z,7.17
2023-04-17T15:31:04.886Z,7.00
2023-04-17T15:33:33.150Z,7.50
2023-04-17T15:36:09.652Z,7.50
2023-04-17T15:38:42.592Z,7.40
2023-04-17T15:41:17.715Z,7.83
2023-04-17T15:43:46.427Z,7.17
2023-04-17T15:46:24.997Z,7.30
2023-04-17T15:49:07.551Z,6.20
2023-04-17T15:51:47.955Z,7.23
2023-04-17T15:54:20.068Z,6.77
2023-04-17T15:56:51.727Z,7.20
2023-04-17T15:59:21.387Z,8.00
2023-04-17T16:01:53.073Z,7.00
2023-04-17T16:04:21.795Z,7.67
2023-04-17T16:06:56.815Z,7.70
2023-04-17T16:09:37.560Z,6.83
2023-04-17T16:12:12.575Z,7.20
2023-04-17T16:14:41.382Z,7.47
2023-04-17T16:17:10.652Z,7.83
2023-04-17T16:19:41.947Z,7.93
2023-04-17T16:22:15.898Z,8.90
2023-04-17T16:24:46.063Z,8.43
2023-04-17T16:27:20.658Z,8.10
2023-04-17T16:29:51.549Z,8.80
2023-04-17T16:32:24.677Z,8.03
2023-04-17T16:34:53.938Z,8.10
2023-04-17T16:37:27.346Z,7.70
2023-04-17T16:40:09.949Z,7.20
2023-04-17T16:42:42.175Z,7.80
2023-04-17T16:45:21.467Z,7.93
2023-04-17T16:47:49.823Z,8.63
2023-04-17T16:50:24.355Z,7.53
2023-04-17T16:52:56.567Z,7.43
2023-04-17T16:55:26.203Z,8.77
2023-04-17T16:57:58.259Z,9.67
2023-04-17T17:00:28.558Z,9.37
2023-04-17T17:02:57.842Z,9.60
2023-04-17T17:05:26.822Z,8.27
2023-04-17T17:07:56.680Z,9.50
2023-04-17T17:10:42.383Z,10.13
2023-04-17T17:13:12.938Z,10.63
2023-04-17T17:15:45.204Z,11.90
2023-04-17T17:18:27.095Z,14.13
2023-04-17T17:21:00.460Z,14.97
2023-04-17T17:23:29.154Z,15.23
2023-04-17T17:26:10.271Z,15.37
2023-04-17T17:28:43.196Z,15.17
2023-04-17T17:31:20.992Z,15.63
2023-04-17T17:33:53.066Z,15.50
2023-04-17T17:36:27.782Z,15.23
2023-04-17T17:38:58.697Z,15.77
2023-04-17T17:41:45.195Z,17.00
2023-04-17T17:44:35.044Z,17.83
2023-04-17T17:47:08.143Z,16.50
2023-04-17T17:49:45.855Z,16.50
2023-04-17T17:52:22.267Z,16.40
2023-04-17T17:54:54.298Z,14.30
2023-04-17T17:57:42.232Z,13.03
2023-04-17T18:00:25.484Z,12.00
2023-04-17T18:02:58.664Z,11.20
2023-04-17T18:05:29.933Z,8.60
2023-04-17T18:08:02.682Z,9.07
2023-04-17T18:10:35.305Z,10.03
2023-04-17T18:13:06.729Z,9.33
2023-04-17T18:15:37.944Z,11.87
2023-04-17T18:18:16.672Z,12.30
2023-04-17T18:20:59.844Z,12.90
2023-04-17T18:23:50.852Z,12.30
2023-04-17T18:26:29.060Z,11.27
2023-04-17T18:29:16.566Z,12.23
2023-04-17T18:31:47.094Z,12.60
2023-04-17T18:34:18.773Z,13.10
2023-04-17T18:36:55.240Z,11.30
2023-04-17T18:39:25.166Z,13.03
2023-04-17T18:45:02.869Z,12.40
2023-04-17T18:47:44.729Z,11.40
2023-04-17T18:50:25.563Z,12.40
2023-04-17T18:52:57.802Z,11.23
2023-04-17T18:55:42.457Z,10.90
2023-04-17T18:58:21.095Z,10.10
2023-04-17T19:00:56.106Z,8.93
2023-04-17T19:03:41.072Z,9.47
2023-04-17T19:06:31.448Z,9.10
2023-04-17T19:09:01.529Z,8.73
2023-04-17T19:11:51.476Z,8.60
2023-04-17T19:14:37.266Z,8.80
2023-04-17T19:17:13.011Z,8.73
2023-04-17T19:19:49.532Z,10.30
2023-04-17T19:22:30.564Z,9.90
2023-04-17T19:25:06.778Z,8.97
2023-04-17T19:27:40.130Z,9.10
2023-04-17T19:30:19.312Z,10.17
2023-04-17T19:33:09.289Z,9.70
2023-04-17T19:35:54.224Z,9.53
2023-04-17T19:38:37.310Z,9.67
2023-04-17T19:41:20.791Z,10.23
2023-04-17T19:44:09.703Z,10.03
2023-04-17T19:46:51.582Z,10.97
2023-04-17T19:49:38.672Z,11.20
2023-04-17T19:55:02.668Z,10.70
2023-04-17T19:57:34.732Z,11.60
2023-04-17T20:00:17.435Z,10.20
2023-04-17T20:02:49.279Z,10.33
2023-04-17T20:05:43.550Z,10.50
2023-04-17T20:08:14.779Z,11.40
2023-04-17T20:10:52.351Z,11.93
2023-04-17T20:13:33.848Z,11.03
2023-04-17T20:16:05.254Z,11.57
2023-04-17T20:18:56.033Z,10.57
2023-04-17T20:21:42.978Z,11.40
2023-04-17T20:24:16.013Z,11.70
2023-04-17T20:26:47.044Z,13.77
2023-04-17T20:29:30.846Z,12.63
2023-04-17T20:34:45.124Z,12.20
2023-04-17T20:37:26.429Z,13.00
2023-04-17T20:39:59.309Z,13.33
2023-04-17T20:42:31.812Z,14.33
2023-04-17T20:45:01.316Z,14.20
2023-04-17T20:47:31.776Z,13.23
2023-04-17T20:50:11.142Z,14.40
2023-04-17T20:52:43.716Z,14.77
2023-04-17T20:55:13.152Z,13.63
2023-04-17T20:57:47.144Z,13.37
2023-04-17T21:00:16.648Z,12.40
2023-04-17T21:02:48.426Z,13.23
2023-04-17T21:05:27.499Z,13.80
2023-04-17T21:08:08.445Z,13.70
2023-04-17T21:10:39.936Z,14.37
2023-04-17T21:13:13.942Z,14.17
2023-04-17T21:15:53.080Z,14.37
2023-04-17T21:18:26.877Z,13.80
2023-04-17T21:20:58.436Z,15.30
2023-04-17T21:23:35.493Z,16.00
2023-04-17T21:26:12.060Z,15.90
2023-04-17T21:28:46.149Z,17.70
2023-04-17T21:31:17.958Z,16.30
2023-04-17T21:33:48.631Z,15.87
2023-04-17T21:36:22.418Z,17.57
2023-04-17T21:39:11.070Z,15.83
2023-04-17T21:41:48.566Z,16.77
2023-04-17T21:44:24.069Z,15.77
2023-04-17T21:47:11.391Z,16.30
2023-04-17T21:49:44.099Z,14.57
2023-04-17T21:52:15.384Z,14.80
2023-04-17T21:54:47.327Z,14.67
2023-04-17T21:57:25.412Z,16.00
2023-04-17T21:59:57.112Z,15.67
2023-04-17T22:02:26.722Z,13.67
2023-04-17T22:04:56.195Z,12.93
2023-04-17T22:07:26.999Z,14.50
2023-04-17T22:09:59.133Z,15.53
2023-04-17T22:12:30.643Z,13.73
2023-04-17T22:15:00.157Z,14.20
2023-04-17T22:17:31.570Z,14.63
2023-04-17T22:20:01.444Z,15.17
2023-04-17T22:22:31.653Z,15.27
2023-04-17T22:25:14.930Z,13.30
2023-04-17T22:27:44.807Z,13.10
2023-04-17T22:30:16.226Z,12.60
2023-04-17T22:32:46.314Z,11.30
2023-04-17T22:35:25.028Z,12.17
2023-04-17T22:37:53.473Z,14.23
2023-04-17T22:40:25.294Z,12.77
2023-04-17T22:42:53.790Z,12.70
2023-04-17T22:45:24.620Z,10.73
2023-04-17T22:47:59.737Z,12.20
2023-04-17T22:50:38.571Z,12.30
2023-04-17T22:53:07.701Z,12.47
2023-04-17T22:55:38.866Z,12.23
2023-04-17T22:58:07.552Z,12.50
2023-04-17T23:00:35.819Z,13.73
2023-04-17T23:03:04.673Z,11.90
2023-04-17T23:05:36.834Z,12.70
2023-04-17T23:08:13.043Z,11.23
2023-04-17T23:11:01.237Z,12.27
2023-04-17T23:13:35.364Z,12.00
2023-04-17T23:16:04.829Z,12.97
2023-04-17T23:18:34.012Z,11.17
2023-04-17T23:21:03.312Z,12.17
2023-04-17T23:23:34.676Z,12.97
2023-04-17T23:26:18.295Z,11.63
2023-04-17T23:28:46.687Z,10.97
2023-04-17T23:31:21.311Z,11.90
2023-04-17T23:33:52.695Z,12.27
2023-04-17T23:36:22.803Z,11.53
2023-04-17T23:38:56.641Z,11.20
2023-04-17T23:41:46.275Z,11.87
2023-04-17T23:44:17.744Z,10.97
2023-04-17T23:46:56.342Z,13.17
2023-04-17T23:49:34.215Z,10.90
2023-04-17T23:52:05.922Z,11.00
2023-04-17T23:54:37.795Z,11.23
2023-04-17T23:57:12.687Z,11.50
2023-04-17T23:59:44.446Z,10.70
